Time,TemperatureF,DewpointF,PressureIn,WindDirection,WindDirectionDegrees,WindSpeedMPH,WindSpeedGustMPH,Humidity,HourlyPrecipIn,Conditions,Clouds,dailyrainin,SoftwareType,DateUTC
2013-04-25 00:02:00,59.2,37.9,29.91,ESE,103,0.0,13.0,45,0.00,,,0.00,Wunderground v.1.13,2013-04-25 07:02:00,
2013-04-25 00:12:00,58.6,37.3,29.91,ESE,103,0.0,13.0,45,0.00,,,0.00,Wunderground v.1.13,2013-04-25 07:12:00,
2013-04-25 00:22:00,57.8,36.6,29.91,ESE,103,0.0,13.0,45,0.00,,,0.00,Wunderground v.1.13,2013-04-25 07:22:00,
2013-04-25 00:27:00,57.5,35.7,29.91,ESE,103,0.0,13.0,44,0.00,,,0.00,Wunderground v.1.13,2013-04-25 07:27:00,
2013-04-25 00:32:00,57.3,35.6,29.91,ESE,103,0.0,13.0,44,0.00,,,0.00,Wunderground v.1.13,2013-04-25 07:32:00,
2013-04-25 00:42:00,57.0,40.0,29.91,ESE,103,0.0,13.0,53,0.00,,,0.00,Wunderground v.1.13,2013-04-25 07:42:00,
2013-04-25 00:52:00,56.9,39.9,29.92,ESE,103,0.0,13.0,53,0.00,,,0.00,Wunderground v.1.13,2013-04-25 07:52:00,
2013-04-25 01:02:00,56.6,39.7,29.92,ESE,103,0.0,13.0,53,0.00,,,0.00,Wunderground v.1.13,2013-04-25 08:02:00,
2013-04-25 01:07:00,56.6,39.2,29.92,ESE,103,0.0,0.0,52,0.00,,,0.00,Wunderground v.1.13,2013-04-25 08:07:00,
2013-04-25 01:17:00,56.3,38.9,29.92,ESE,103,0.0,0.0,52,0.00,,,0.00,Wunderground v.1.13,2013-04-25 08:17:00,
2013-04-25 01:22:00,56.0,38.1,29.92,ESE,103,0.0,0.0,51,0.00,,,0.00,Wunderground v.1.13,2013-04-25 08:22:00,
2013-04-25 01:27:00,55.9,39.0,29.92,ESE,103,0.0,0.0,53,0.00,,,0.00,Wunderground v.1.13,2013-04-25 08:27:00,
2013-04-25 01:37:00,55.4,38.5,29.92,ESE,103,0.0,0.0,53,0.00,,,0.00,Wunderground v.1.13,2013-04-25 08:37:00,
2013-04-25 01:47:00,55.0,37.7,29.92,ESE,103,1.0,1.0,52,0.00,,,0.00,Wunderground v.1.13,2013-04-25 08:47:00,
2013-04-25 01:52:00,54.8,37.0,29.92,ESE,102,1.0,1.0,51,0.00,,,0.00,Wunderground v.1.13,2013-04-25 08:52:00,
2013-04-25 02:02:00,54.4,38.6,29.92,ESE,103,0.0,1.0,55,0.00,,,0.00,Wunderground v.1.13,2013-04-25 09:02:00,
2013-04-25 02:07:00,54.2,38.8,29.92,ESE,103,0.0,1.0,56,0.00,,,0.00,Wunderground v.1.13,2013-04-25 09:07:00,
2013-04-25 02:17:00,53.9,39.0,29.93,ESE,103,0.0,1.0,57,0.00,,,0.00,Wunderground v.1.13,2013-04-25 09:17:00,
2013-04-25 02:27:00,53.8,38.5,29.93,ESE,103,0.0,1.0,56,0.00,,,0.00,Wunderground v.1.13,2013-04-25 09:27:00,
2013-04-25 02:37:00,53.6,37.3,29.93,ESE,103,0.0,1.0,54,0.00,,,0.00,Wunderground v.1.13,2013-04-25 09:37:00,
2013-04-25 02:42:00,53.5,36.8,29.93,ESE,103,0.0,1.0,53,0.00,,,0.00,Wunderground v.1.13,2013-04-25 09:42:00,
2013-04-25 02:52:00,53.2,34.0,29.94,ESE,103,0.0,1.0,48,0.00,,,0.00,Wunderground v.1.13,2013-04-25 09:52:00,
2013-04-25 03:02:00,52.9,33.7,29.94,ESE,103,0.0,1.0,48,0.00,,,0.00,Wunderground v.1.13,2013-04-25 10:02:00,
2013-04-25 03:07:00,52.8,33.6,29.94,ESE,103,0.0,1.0,48,0.00,,,0.00,Wunderground v.1.13,2013-04-25 10:07:00,
2013-04-25 03:17:00,52.5,34.4,29.94,ESE,103,0.0,1.0,50,0.00,,,0.00,Wunderground v.1.13,2013-04-25 10:17:00,
2013-04-25 03:27:00,52.3,37.1,29.94,ESE,103,0.0,2.0,56,0.00,,,0.00,Wunderground v.1.13,2013-04-25 10:27:00,
2013-04-25 03:32:00,52.2,38.7,29.95,ESE,103,1.0,2.0,60,0.00,,,0.00,Wunderground v.1.13,2013-04-25 10:32:00,
2013-04-25 03:37:00,51.9,39.7,29.95,ESE,103,2.0,2.0,63,0.00,,,0.00,Wunderground v.1.13,2013-04-25 10:37:00,
2013-04-25 03:47:00,51.7,41.1,29.95,SE,131,3.0,3.0,67,0.00,,,0.00,Wunderground v.1.13,2013-04-25 10:47:00,
2013-04-25 03:52:00,51.7,41.5,29.95,SE,133,3.0,3.0,68,0.00,,,0.00,Wunderground v.1.13,2013-04-25 10:52:00,
2013-04-25 04:02:00,51.4,41.2,29.95,SE,137,3.0,3.0,68,0.00,,,0.00,Wunderground v.1.13,2013-04-25 11:02:00,
2013-04-25 04:12:00,51.3,41.1,29.96,SE,137,1.0,1.0,68,0.00,,,0.00,Wunderground v.1.13,2013-04-25 11:12:00,
2013-04-25 04:17:00,51.1,40.9,29.97,SE,137,0.0,1.0,68,0.00,,,0.00,Wunderground v.1.13,2013-04-25 11:17:00,
2013-04-25 04:27:00,50.8,40.2,29.97,SE,137,0.0,1.0,67,0.00,,,0.00,Wunderground v.1.13,2013-04-25 11:27:00,
2013-04-25 04:32:00,50.7,40.5,29.97,SE,137,0.0,1.0,68,0.00,,,0.00,Wunderground v.1.13,2013-04-25 11:32:00,
2013-04-25 04:37:00,50.5,40.3,29.97,SE,137,0.0,1.0,68,0.00,,,0.00,Wunderground v.1.13,2013-04-25 11:37:00,
2013-04-25 04:42:00,50.5,40.3,29.97,SE,137,0.0,1.0,68,0.00,,,0.00,Wunderground v.1.13,2013-04-25 11:42:00,
2013-04-25 04:52:00,50.4,38.7,29.97,SE,137,0.0,1.0,64,0.00,,,0.00,Wunderground v.1.13,2013-04-25 11:52:00,
2013-04-25 05:02:00,50.1,35.9,29.97,SE,137,0.0,1.0,58,0.00,,,0.00,Wunderground v.1.13,2013-04-25 12:02:00,
2013-04-25 05:07:00,49.9,35.3,29.97,SE,137,0.0,1.0,57,0.00,,,0.00,Wunderground v.1.13,2013-04-25 12:07:00,
2013-04-25 05:17:00,49.5,34.0,29.97,SE,137,0.0,1.0,55,0.00,,,0.00,Wunderground v.1.13,2013-04-25 12:17:00,
2013-04-25 05:27:00,49.1,35.8,29.97,SE,137,0.0,1.0,60,0.00,,,0.00,Wunderground v.1.13,2013-04-25 12:27:00,
2013-04-25 05:32:00,48.9,36.9,29.97,SE,137,0.0,1.0,63,0.00,,,0.00,Wunderground v.1.13,2013-04-25 12:32:00,
2013-04-25 05:42:00,48.6,37.4,29.98,SE,137,0.0,1.0,65,0.00,,,0.00,Wunderground v.1.13,2013-04-25 12:42:00,
2013-04-25 05:47:00,48.5,37.3,29.98,SE,137,0.0,1.0,65,0.00,,,0.00,Wunderground v.1.13,2013-04-25 12:47:00,
2013-04-25 05:57:00,48.2,37.4,29.98,SE,136,2.0,2.0,66,0.00,,,0.00,Wunderground v.1.13,2013-04-25 12:57:00,
2013-04-25 06:07:00,48.0,36.8,29.98,ESE,123,2.0,2.0,65,0.00,,,0.00,Wunderground v.1.13,2013-04-25 13:07:00,
2013-04-25 06:12:00,47.9,36.7,29.98,SE,131,2.0,2.0,65,0.00,,,0.00,Wunderground v.1.13,2013-04-25 13:12:00,
2013-04-25 06:22:00,47.7,36.1,30.00,SE,132,2.0,2.0,64,0.00,,,0.00,Wunderground v.1.13,2013-04-25 13:22:00,
2013-04-25 06:27:00,47.6,35.6,30.01,SSE,148,1.0,2.0,63,0.00,,,0.00,Wunderground v.1.13,2013-04-25 13:27:00,
2013-04-25 06:32:00,47.4,35.8,30.01,SE,146,1.0,1.0,64,0.00,,,0.00,Wunderground v.1.13,2013-04-25 13:32:00,
2013-04-25 06:42:00,47.6,36.4,30.02,SE,146,0.0,1.0,65,0.00,,,0.00,Wunderground v.1.13,2013-04-25 13:42:00,
2013-04-25 06:47:00,47.6,36.8,30.02,SE,146,0.0,1.0,66,0.00,,,0.00,Wunderground v.1.13,2013-04-25 13:47:00,
2013-04-25 06:57:00,48.0,37.9,30.02,SE,146,0.0,1.0,68,0.00,,,0.00,Wunderground v.1.13,2013-04-25 13:57:00,
2013-04-25 07:02:00,48.3,38.6,30.03,SE,145,0.0,1.0,69,0.00,,,0.00,Wunderground v.1.13,2013-04-25 14:02:00,
2013-04-25 07:12:00,49.2,39.5,30.02,SE,146,1.0,1.0,69,0.00,,,0.00,Wunderground v.1.13,2013-04-25 14:12:00,
2013-04-25 07:22:00,50.1,39.9,30.03,SE,130,0.0,1.0,68,0.00,,,0.00,Wunderground v.1.13,2013-04-25 14:22:00,
2013-04-25 07:32:00,51.1,39.7,30.04,East,95,1.0,1.0,65,0.00,,,0.00,Wunderground v.1.13,2013-04-25 14:32:00,
2013-04-25 07:37:00,51.6,40.6,30.04,East,95,0.0,1.0,66,0.00,,,0.00,Wunderground v.1.13,2013-04-25 14:37:00,
2013-04-25 07:42:00,52.0,40.6,30.04,East,98,0.0,4.0,65,0.00,,,0.00,Wunderground v.1.13,2013-04-25 14:42:00,
2013-04-25 07:52:00,52.9,41.4,30.04,East,101,1.0,1.0,65,0.00,,,0.00,Wunderground v.1.13,2013-04-25 14:52:00,
2013-04-25 08:02:00,53.8,41.9,30.04,ESE,106,1.0,2.0,64,0.00,,,0.00,Wunderground v.1.13,2013-04-25 15:02:00,
2013-04-25 08:12:00,54.8,42.0,30.03,ESE,106,1.0,1.0,62,0.00,,,0.00,Wunderground v.1.13,2013-04-25 15:12:00,
2013-04-25 08:17:00,55.4,42.2,30.04,ESE,106,1.0,1.0,61,0.00,,,0.00,Wunderground v.1.13,2013-04-25 15:17:00,
2013-04-25 08:27:00,56.9,42.7,30.03,ESE,106,1.0,2.0,59,0.00,,,0.00,Wunderground v.1.13,2013-04-25 15:27:00,
2013-04-25 08:37:00,58.1,42.0,30.04,ESE,105,2.0,2.0,55,0.00,,,0.00,Wunderground v.1.13,2013-04-25 15:37:00,
2013-04-25 08:42:00,58.7,41.6,30.03,ESE,105,1.0,2.0,53,0.00,,,0.00,Wunderground v.1.13,2013-04-25 15:42:00,
2013-04-25 08:52:00,59.9,41.2,30.04,ESE,105,0.0,1.0,50,0.00,,,0.00,Wunderground v.1.13,2013-04-25 15:52:00,
2013-04-25 08:57:00,60.4,41.1,30.04,ESE,105,0.0,1.0,49,0.00,,,0.00,Wunderground v.1.13,2013-04-25 15:57:00,
2013-04-25 09:07:00,61.3,39.2,30.04,ESE,118,1.0,1.0,44,0.00,,,0.00,Wunderground v.1.13,2013-04-25 16:07:00,
2013-04-25 09:12:00,61.6,38.3,30.04,ESE,118,0.0,1.0,42,0.00,,,0.00,Wunderground v.1.13,2013-04-25 16:12:00,
2013-04-25 09:22:00,62.7,40.5,30.05,ESE,120,0.0,1.0,44,0.00,,,0.00,Wunderground v.1.13,2013-04-25 16:22:00,
2013-04-25 09:32:00,63.5,38.1,30.05,ESE,120,0.0,1.0,39,0.00,,,0.00,Wunderground v.1.13,2013-04-25 16:32:00,
2013-04-25 09:37:00,64.2,38.0,30.06,ESE,120,0.0,1.0,38,0.00,,,0.00,Wunderground v.1.13,2013-04-25 16:37:00,
2013-04-25 09:42:00,64.5,38.3,30.06,ESE,120,0.0,1.0,38,0.00,,,0.00,Wunderground v.1.13,2013-04-25 16:42:00,
2013-04-25 09:52:00,65.5,36.4,30.06,ESE,120,0.0,1.0,34,0.00,,,0.00,Wunderground v.1.13,2013-04-25 16:52:00,
2013-04-25 10:02:00,66.0,37.5,30.06,ESE,120,0.0,1.0,35,0.00,,,0.00,Wunderground v.1.13,2013-04-25 17:02:00,
2013-04-25 10:07:00,66.1,37.6,30.06,SE,132,0.0,1.0,35,0.00,,,0.00,Wunderground v.1.13,2013-04-25 17:07:00,
2013-04-25 10:12:00,66.3,39.2,30.06,SE,132,0.0,1.0,37,0.00,,,0.00,Wunderground v.1.13,2013-04-25 17:12:00,
2013-04-25 10:22:00,67.4,41.6,30.06,SSE,157,0.0,1.0,39,0.00,,,0.00,Wunderground v.1.13,2013-04-25 17:22:00,
2013-04-25 10:27:00,67.8,41.3,30.07,West,280,0.0,1.0,38,0.00,,,0.00,Wunderground v.1.13,2013-04-25 17:27:00,
2013-04-25 10:32:00,67.8,41.3,30.07,SSW,192,0.0,1.0,38,0.00,,,0.00,Wunderground v.1.13,2013-04-25 17:32:00,
2013-04-25 10:42:00,68.1,46.5,30.07,SSW,207,0.0,1.0,46,0.00,,,0.00,Wunderground v.1.13,2013-04-25 17:42:00,
2013-04-25 10:52:00,68.4,45.0,30.07,SW,229,0.0,1.0,43,0.00,,,0.00,Wunderground v.1.13,2013-04-25 17:52:00,
2013-04-25 10:57:00,68.4,45.0,30.07,SSW,207,0.0,1.0,43,0.00,,,0.00,Wunderground v.1.13,2013-04-25 17:57:00,
2013-04-25 11:07:00,68.6,45.8,30.07,SSE,149,0.0,1.0,44,0.00,,,0.00,Wunderground v.1.13,2013-04-25 18:07:00,
2013-04-25 11:17:00,68.8,47.2,30.08,SSE,157,1.0,4.0,46,0.00,,,0.00,Wunderground v.1.13,2013-04-25 18:17:00,
2013-04-25 11:22:00,68.8,45.4,30.08,SW,225,0.0,1.0,43,0.00,,,0.00,Wunderground v.1.13,2013-04-25 18:22:00,
2013-04-25 11:32:00,69.1,46.3,30.08,SSE,155,0.0,1.0,44,0.00,,,0.00,Wunderground v.1.13,2013-04-25 18:32:00,
2013-04-25 11:37:00,69.8,47.5,30.08,SSE,155,0.0,1.0,45,0.00,,,0.00,Wunderground v.1.13,2013-04-25 18:37:00,
2013-04-25 11:47:00,70.6,47.0,30.08,SW,235,0.0,1.0,43,0.00,,,0.00,Wunderground v.1.13,2013-04-25 18:47:00,
2013-04-25 11:52:00,70.8,46.6,30.08,WSW,250,1.0,1.0,42,0.00,,,0.00,Wunderground v.1.13,2013-04-25 18:52:00,
2013-04-25 12:02:00,70.9,47.3,30.08,SSW,206,0.0,1.0,43,0.00,,,0.00,Wunderground v.1.13,2013-04-25 19:02:00,
2013-04-25 12:07:00,71.3,47.0,30.08,West,261,1.0,1.0,42,0.00,,,0.00,Wunderground v.1.13,2013-04-25 19:07:00,
2013-04-25 12:17:00,71.3,48.9,30.08,SW,227,0.0,1.0,45,0.00,,,0.00,Wunderground v.1.13,2013-04-25 19:17:00,
2013-04-25 12:22:00,71.6,48.5,30.08,SE,142,0.0,1.0,44,0.00,,,0.00,Wunderground v.1.13,2013-04-25 19:22:00,
2013-04-25 12:32:00,72.1,49.0,30.08,WSW,250,0.0,1.0,44,0.00,,,0.00,Wunderground v.1.13,2013-04-25 19:32:00,
2013-04-25 12:42:00,72.7,49.5,30.08,SSE,148,0.0,1.0,44,0.00,,,0.00,Wunderground v.1.13,2013-04-25 19:42:00,
2013-04-25 12:47:00,73.0,47.2,30.08,West,273,0.0,1.0,40,0.00,,,0.00,Wunderground v.1.13,2013-04-25 19:47:00,
2013-04-25 12:52:00,73.0,49.8,30.08,WSW,240,0.0,1.0,44,0.00,,,0.00,Wunderground v.1.13,2013-04-25 19:52:00,
2013-04-25 13:02:00,72.7,50.7,30.08,West,260,0.0,1.0,46,0.00,,,0.00,Wunderground v.1.13,2013-04-25 20:02:00,
2013-04-25 13:07:00,72.7,49.5,30.08,SSE,157,0.0,0.0,44,0.00,,,0.00,Wunderground v.1.13,2013-04-25 20:07:00,
2013-04-25 13:17:00,73.3,50.1,30.09,SSE,163,0.0,0.0,44,0.00,,,0.00,Wunderground v.1.13,2013-04-25 20:17:00,
2013-04-25 13:22:00,73.3,49.4,30.09,SSW,196,0.0,0.0,43,0.00,,,0.00,Wunderground v.1.13,2013-04-25 20:22:00,
2013-04-25 13:27:00,74.0,50.1,30.08,South,186,1.0,1.0,43,0.00,,,0.00,Wunderground v.1.13,2013-04-25 20:27:00,
2013-04-25 13:37:00,74.0,48.8,30.09,SE,137,0.0,1.0,41,0.00,,,0.00,Wunderground v.1.13,2013-04-25 20:37:00,
2013-04-25 13:47:00,73.7,48.5,30.09,SSW,209,1.0,1.0,41,0.00,,,0.00,Wunderground v.1.13,2013-04-25 20:47:00,
2013-04-25 13:52:00,73.5,49.0,30.09,SSE,161,1.0,1.0,42,0.00,,,0.00,Wunderground v.1.13,2013-04-25 20:52:00,
2013-04-25 13:57:00,73.3,50.1,30.09,SSW,202,0.0,4.0,44,0.00,,,0.00,Wunderground v.1.13,2013-04-25 20:57:00,
2013-04-25 14:07:00,73.7,50.4,30.09,SW,225,0.0,4.0,44,0.00,,,0.00,Wunderground v.1.13,2013-04-25 21:07:00,
2013-04-25 14:12:00,74.0,50.1,30.09,SE,140,0.0,4.0,43,0.00,,,0.00,Wunderground v.1.13,2013-04-25 21:12:00,
2013-04-25 14:22:00,74.6,49.3,30.09,West,265,0.0,4.0,41,0.00,,,0.00,Wunderground v.1.13,2013-04-25 21:22:00,
2013-04-25 14:32:00,74.7,47.4,30.09,SW,230,0.0,4.0,38,0.00,,,0.00,Wunderground v.1.13,2013-04-25 21:32:00,
2013-04-25 14:37:00,74.9,44.6,30.09,West,277,0.0,4.0,34,0.00,,,0.00,Wunderground v.1.13,2013-04-25 21:37:00,
2013-04-25 14:42:00,74.9,45.4,30.09,SW,222,0.0,4.0,35,0.00,,,0.00,Wunderground v.1.13,2013-04-25 21:42:00,
2013-04-25 14:52:00,75.1,46.3,30.09,SE,130,1.0,1.0,36,0.00,,,0.00,Wunderground v.1.13,2013-04-25 21:52:00,
2013-04-25 15:02:00,75.3,45.7,30.09,SW,229,0.0,4.0,35,0.00,,,0.00,Wunderground v.1.13,2013-04-25 22:02:00,
2013-04-25 15:07:00,75.3,43.4,30.09,WNW,301,1.0,1.0,32,0.00,,,0.00,Wunderground v.1.13,2013-04-25 22:07:00,
2013-04-25 15:17:00,75.1,45.6,30.10,West,267,1.0,1.0,35,0.00,,,0.00,Wunderground v.1.13,2013-04-25 22:17:00,
2013-04-25 15:22:00,75.3,46.5,30.10,South,189,0.0,4.0,36,0.00,,,0.00,Wunderground v.1.13,2013-04-25 22:22:00,
2013-04-25 15:27:00,75.3,42.6,30.10,WSW,257,0.0,4.0,31,0.00,,,0.00,Wunderground v.1.13,2013-04-25 22:27:00,
2013-04-25 15:32:00,75.3,44.2,30.09,South,188,0.0,4.0,33,0.00,,,0.00,Wunderground v.1.13,2013-04-25 22:32:00,
2013-04-25 15:42:00,75.1,46.3,30.09,SSE,164,0.0,4.0,36,0.00,,,0.00,Wunderground v.1.13,2013-04-25 22:42:00,
2013-04-25 15:47:00,74.9,45.4,30.09,West,266,0.0,4.0,35,0.00,,,0.00,Wunderground v.1.13,2013-04-25 22:47:00,
2013-04-25 15:57:00,74.6,46.6,30.09,West,281,0.0,4.0,37,0.00,,,0.00,Wunderground v.1.13,2013-04-25 22:57:00,
2013-04-25 16:02:00,74.2,47.6,30.10,NNW,327,0.0,4.0,39,0.00,,,0.00,Wunderground v.1.13,2013-04-25 23:02:00,
2013-04-25 16:12:00,74.2,45.5,30.09,West,260,0.0,4.0,36,0.00,,,0.00,Wunderground v.1.13,2013-04-25 23:12:00,
2013-04-25 16:22:00,73.7,45.1,30.10,SSW,209,0.0,4.0,36,0.00,,,0.00,Wunderground v.1.13,2013-04-25 23:22:00,
2013-04-25 16:27:00,73.5,44.9,30.09,SE,135,0.0,4.0,36,0.00,,,0.00,Wunderground v.1.13,2013-04-25 23:27:00,
2013-04-25 16:37:00,73.2,45.4,30.10,West,277,0.0,4.0,37,0.00,,,0.00,Wunderground v.1.13,2013-04-25 23:37:00,
2013-04-25 16:42:00,73.0,44.5,30.10,West,263,0.0,4.0,36,0.00,,,0.00,Wunderground v.1.13,2013-04-25 23:42:00,
2013-04-25 16:52:00,73.0,45.9,30.11,NNW,342,0.0,4.0,38,0.00,,,0.00,Wunderground v.1.13,2013-04-25 23:52:00,
2013-04-25 17:02:00,72.5,44.0,30.11,SSW,211,0.0,4.0,36,0.00,,,0.00,Wunderground v.1.13,2013-04-26 00:02:00,
2013-04-25 17:07:00,72.3,45.9,30.11,SW,215,0.0,4.0,39,0.00,,,0.00,Wunderground v.1.13,2013-04-26 00:07:00,
2013-04-25 17:17:00,71.6,46.6,30.12,SSW,209,0.0,4.0,41,0.00,,,0.00,Wunderground v.1.13,2013-04-26 00:17:00,
2013-04-25 17:22:00,71.3,47.0,30.12,SW,220,0.0,4.0,42,0.00,,,0.00,Wunderground v.1.13,2013-04-26 00:22:00,
2013-04-25 17:32:00,70.6,47.0,30.12,SE,138,0.0,4.0,43,0.00,,,0.00,Wunderground v.1.13,2013-04-26 00:32:00,
2013-04-25 17:37:00,70.4,47.4,30.12,SW,218,0.0,4.0,44,0.00,,,0.00,Wunderground v.1.13,2013-04-26 00:37:00,
2013-04-25 17:47:00,69.9,46.4,30.12,SE,137,0.0,4.0,43,0.00,,,0.00,Wunderground v.1.13,2013-04-26 00:47:00,
2013-04-25 17:57:00,69.6,46.1,30.12,WSW,258,0.0,4.0,43,0.00,,,0.00,Wunderground v.1.13,2013-04-26 00:57:00,
2013-04-25 18:07:00,69.4,47.1,30.12,SSE,150,0.0,4.0,45,0.00,,,0.00,Wunderground v.1.13,2013-04-26 01:07:00,
2013-04-25 18:17:00,69.3,46.4,30.12,South,177,0.0,4.0,44,0.00,,,0.00,Wunderground v.1.13,2013-04-26 01:17:00,
2013-04-25 18:22:00,69.3,47.0,30.12,South,177,0.0,4.0,45,0.00,,,0.00,Wunderground v.1.13,2013-04-26 01:22:00,
2013-04-25 18:27:00,69.1,46.9,30.12,SSW,199,0.0,4.0,45,0.00,,,0.00,Wunderground v.1.13,2013-04-26 01:27:00,
2013-04-25 18:37:00,68.6,47.6,30.12,SW,221,0.0,4.0,47,0.00,,,0.00,Wunderground v.1.13,2013-04-26 01:37:00,
2013-04-25 18:47:00,68.1,47.7,30.13,WSW,243,0.0,4.0,48,0.00,,,0.00,Wunderground v.1.13,2013-04-26 01:47:00,
2013-04-25 18:52:00,67.9,46.9,30.13,WSW,243,0.0,4.0,47,0.00,,,0.00,Wunderground v.1.13,2013-04-26 01:52:00,
2013-04-25 19:02:00,67.3,48.0,30.13,WSW,244,0.0,4.0,50,0.00,,,0.00,Wunderground v.1.13,2013-04-26 02:02:00,
2013-04-25 19:07:00,66.6,47.4,30.13,WSW,244,0.0,4.0,50,0.00,,,0.00,Wunderground v.1.13,2013-04-26 02:07:00,
2013-04-25 19:17:00,65.8,47.7,30.12,WSW,244,0.0,4.0,52,0.00,,,0.00,Wunderground v.1.13,2013-04-26 02:17:00,
2013-04-25 19:22:00,65.6,47.5,30.12,WSW,244,0.0,4.0,52,0.00,,,0.00,Wunderground v.1.13,2013-04-26 02:22:00,
2013-04-25 19:32:00,64.8,47.3,30.12,WSW,244,0.0,4.0,53,0.00,,,0.00,Wunderground v.1.13,2013-04-26 02:32:00,
2013-04-25 19:37:00,64.7,47.2,30.13,WSW,244,0.0,4.0,53,0.00,,,0.00,Wunderground v.1.13,2013-04-26 02:37:00,
2013-04-25 19:47:00,63.9,46.9,30.13,WSW,244,0.0,4.0,54,0.00,,,0.00,Wunderground v.1.13,2013-04-26 02:47:00,
2013-04-25 19:57:00,62.9,46.5,30.13,WSW,244,0.0,4.0,55,0.00,,,0.00,Wunderground v.1.13,2013-04-26 02:57:00,
2013-04-25 20:02:00,62.3,46.4,30.14,WSW,244,0.0,4.0,56,0.00,,,0.00,Wunderground v.1.13,2013-04-26 03:02:00,
2013-04-25 20:07:00,61.8,45.9,30.14,WSW,244,0.0,4.0,56,0.00,,,0.00,Wunderground v.1.13,2013-04-26 03:07:00,
2013-04-25 20:17:00,61.2,45.8,30.12,WSW,244,0.0,4.0,57,0.00,,,0.00,Wunderground v.1.13,2013-04-26 03:17:00,
2013-04-25 20:22:00,60.9,45.6,30.13,WSW,244,0.0,4.0,57,0.00,,,0.00,Wunderground v.1.13,2013-04-26 03:22:00,
2013-04-25 20:32:00,60.2,45.4,30.13,WSW,244,0.0,4.0,58,0.00,,,0.00,Wunderground v.1.13,2013-04-26 03:32:00,
2013-04-25 20:37:00,60.1,45.7,30.13,WSW,244,0.0,4.0,59,0.00,,,0.00,Wunderground v.1.13,2013-04-26 03:37:00,
2013-04-25 20:47:00,59.5,45.6,30.14,WSW,244,0.0,4.0,60,0.00,,,0.00,Wunderground v.1.13,2013-04-26 03:47:00,
2013-04-25 20:57:00,59.0,45.6,30.15,WSW,244,0.0,4.0,61,0.00,,,0.00,Wunderground v.1.13,2013-04-26 03:57:00,
2013-04-25 21:02:00,58.9,45.5,30.15,WSW,244,0.0,4.0,61,0.00,,,0.00,Wunderground v.1.13,2013-04-26 04:02:00,
2013-04-25 21:07:00,58.7,45.7,30.15,WSW,244,0.0,4.0,62,0.00,,,0.00,Wunderground v.1.13,2013-04-26 04:07:00,
2013-04-25 21:12:00,58.4,45.4,30.15,WSW,244,0.0,4.0,62,0.00,,,0.00,Wunderground v.1.13,2013-04-26 04:12:00,
2013-04-25 21:17:00,58.3,45.8,30.14,WSW,244,0.0,4.0,63,0.00,,,0.00,Wunderground v.1.13,2013-04-26 04:17:00,
2013-04-25 21:22:00,58.0,45.5,30.14,SSW,210,0.0,4.0,63,0.00,,,0.00,Wunderground v.1.13,2013-04-26 04:22:00,
2013-04-25 21:32:00,57.6,45.5,30.15,SSW,207,0.0,4.0,64,0.00,,,0.00,Wunderground v.1.13,2013-04-26 04:32:00,
2013-04-25 21:37:00,57.5,45.4,30.15,SSW,207,0.0,4.0,64,0.00,,,0.00,Wunderground v.1.13,2013-04-26 04:37:00,
2013-04-25 21:47:00,57.2,45.5,30.15,SSW,207,0.0,4.0,65,0.00,,,0.00,Wunderground v.1.13,2013-04-26 04:47:00,
2013-04-25 21:52:00,57.0,45.7,30.15,SSW,207,0.0,4.0,66,0.00,,,0.00,Wunderground v.1.13,2013-04-26 04:52:00,
2013-04-25 22:02:00,56.7,45.9,30.15,SSW,207,0.0,4.0,67,0.00,,,0.00,Wunderground v.1.13,2013-04-26 05:02:00,
2013-04-25 22:07:00,56.6,46.2,30.15,SSW,207,0.0,4.0,68,0.00,,,0.00,Wunderground v.1.13,2013-04-26 05:07:00,
2013-04-25 22:17:00,56.2,46.5,30.15,SSW,207,0.0,4.0,70,0.00,,,0.00,Wunderground v.1.13,2013-04-26 05:17:00,
2013-04-25 22:22:00,56.0,46.4,30.15,SSW,207,0.0,4.0,70,0.00,,,0.00,Wunderground v.1.13,2013-04-26 05:22:00,
2013-04-25 22:27:00,55.9,46.6,30.15,SSW,207,0.0,4.0,71,0.00,,,0.00,Wunderground v.1.13,2013-04-26 05:27:00,
2013-04-25 22:37:00,55.7,46.4,30.15,SSW,207,0.0,4.0,71,0.00,,,0.00,Wunderground v.1.13,2013-04-26 05:37:00,
2013-04-25 22:47:00,55.4,46.9,30.15,SSW,207,0.0,4.0,73,0.00,,,0.00,Wunderground v.1.13,2013-04-26 05:47:00,
2013-04-25 22:57:00,55.3,46.8,30.15,SSW,207,0.0,4.0,73,0.00,,,0.00,Wunderground v.1.13,2013-04-26 05:57:00,
2013-04-25 23:02:00,55.1,46.6,30.15,SE,144,0.0,4.0,73,0.00,,,0.00,Wunderground v.1.13,2013-04-26 06:02:00,
2013-04-25 23:12:00,55.0,46.5,30.15,SE,143,0.0,4.0,73,0.00,,,0.00,Wunderground v.1.13,2013-04-26 06:12:00,
2013-04-25 23:17:00,55.0,46.5,30.15,SE,139,1.0,4.0,73,0.00,,,0.00,Wunderground v.1.13,2013-04-26 06:17:00,
2013-04-25 23:27:00,54.8,46.7,30.15,SE,128,0.0,4.0,74,0.00,,,0.00,Wunderground v.1.13,2013-04-26 06:27:00,
2013-04-25 23:37:00,54.8,46.7,30.15,SE,127,0.0,4.0,74,0.00,,,0.00,Wunderground v.1.13,2013-04-26 06:37:00,
2013-04-25 23:42:00,54.8,46.7,30.15,ESE,107,0.0,4.0,74,0.00,,,0.00,Wunderground v.1.13,2013-04-26 06:42:00,
2013-04-25 23:47:00,54.8,46.7,30.16,ESE,107,0.0,4.0,74,0.00,,,0.00,Wunderground v.1.13,2013-04-26 06:47:00,
2013-04-25 23:52:00,54.8,46.7,30.16,ESE,105,0.0,4.0,74,0.00,,,0.00,Wunderground v.1.13,2013-04-26 06:52:00,
2013-04-25 23:57:00,54.7,46.6,30.16,East,100,2.0,5.0,74,0.00,,,0.00,Wunderground v.1.13,2013-04-26 06:57:00,